Time;durP1;ratioP1;P1;durP2;ratioP2;P2;SDS_P1;SDS_P2;PMS_P1;PMS_P2;Temp;Humidity;BMP_temperature;BMP_pressure;BME280_temperature;BME280_humidity;BME280_pressure;Samples;Min_cycle;Max_cycle;Signal;HPM_P1;HPM_P2
2023/02/23 00:00:59;;;;;;;13.47;8.83;;;17.60;68.90;;;;;;5076493;28;20239;-47
2023/02/23 00:03:31;;;;;;;10.83;8.43;;;17.50;69.00;;;;;;5077433;28;20537;-47
2023/02/23 00:06:03;;;;;;;9.30;8.17;;;17.50;69.00;;;;;;5080899;28;20193;-47
2023/02/23 00:08:35;;;;;;;10.93;9.03;;;17.50;69.00;;;;;;5071212;28;20242;-47
2023/02/23 00:11:07;;;;;;;12.10;9.33;;;17.50;69.10;;;;;;5052240;28;20779;-47
2023/02/23 00:13:38;;;;;;;11.07;8.97;;;17.40;69.10;;;;;;5035417;28;20524;-46
2023/02/23 00:16:13;;;;;;;11.17;8.53;;;17.40;69.30;;;;;;5040631;28;20224;-47
2023/02/23 00:18:56;;;;;;;12.07;9.27;;;17.40;69.20;;;;;;5073479;28;20221;-46
2023/02/23 00:21:34;;;;;;;9.57;8.43;;;17.40;69.20;;;;;;5053056;28;20247;-47
2023/02/23 00:24:02;;;;;;;10.13;8.77;;;17.30;69.10;;;;;;5067322;28;20224;-47
2023/02/23 00:26:36;;;;;;;10.80;8.47;;;17.30;69.10;;;;;;5069018;28;20294;-47
2023/02/23 00:29:16;;;;;;;10.73;9.13;;;17.30;69.30;;;;;;5071417;28;20265;-47
2023/02/23 00:31:50;;;;;;;10.00;8.50;;;17.20;69.10;;;;;;5064175;28;20314;-47
2023/02/23 00:34:23;;;;;;;9.80;8.80;;;17.30;69.30;;;;;;5062240;28;20209;-47
2023/02/23 00:36:54;;;;;;;11.40;9.37;;;17.30;69.40;;;;;;5068668;28;20217;-47
2023/02/23 00:39:27;;;;;;;10.10;8.47;;;17.20;69.40;;;;;;5086475;28;20219;-47
2023/02/23 00:42:02;;;;;;;10.90;8.87;;;17.20;69.40;;;;;;5084270;28;20238;-47
2023/02/23 00:44:33;;;;;;;10.33;8.90;;;17.20;70.10;;;;;;5085538;28;20220;-47
2023/02/23 00:47:04;;;;;;;10.07;8.70;;;17.20;69.60;;;;;;5060395;28;20628;-47
2023/02/23 00:49:35;;;;;;;9.97;7.97;;;17.20;69.50;;;;;;5083724;28;20205;-47
2023/02/23 00:52:04;;;;;;;10.30;8.20;;;17.20;69.60;;;;;;5084703;28;20246;-47
2023/02/23 00:54:33;;;;;;;9.57;8.27;;;17.20;69.60;;;;;;5075325;28;20231;-47
2023/02/23 00:57:02;;;;;;;10.57;9.20;;;17.10;69.60;;;;;;5067327;28;20231;-47
2023/02/23 00:59:32;;;;;;;9.10;8.03;;;17.20;69.70;;;;;;5081483;28;20197;-47
2023/02/23 01:02:04;;;;;;;10.23;8.57;;;17.10;69.50;;;;;;5074529;28;20239;-47
2023/02/23 01:04:35;;;;;;;10.57;8.17;;;17.10;69.60;;;;;;5084298;28;20692;-47
2023/02/23 01:07:07;;;;;;;9.43;8.20;;;17.10;69.50;;;;;;5085440;28;20201;-47
2023/02/23 01:09:39;;;;;;;9.87;8.20;;;17.10;69.40;;;;;;5078911;28;20225;-47
2023/02/23 01:12:11;;;;;;;9.27;8.27;;;17.10;69.60;;;;;;5076779;28;20204;-47
2023/02/23 01:14:37;;;;;;;10.10;8.33;;;17.10;69.60;;;;;;5077852;28;20266;-47
2023/02/23 01:17:08;;;;;;;10.70;8.60;;;17.10;69.60;;;;;;5075924;28;20197;-47
2023/02/23 01:19:37;;;;;;;10.10;8.47;;;17.10;69.60;;;;;;5100197;28;20621;-47
2023/02/23 01:22:07;;;;;;;9.33;7.80;;;17.10;69.70;;;;;;5088484;28;20522;-47
2023/02/23 01:24:38;;;;;;;10.50;8.43;;;17.10;69.70;;;;;;5069200;28;20240;-47
2023/02/23 01:27:09;;;;;;;10.10;8.10;;;17.10;69.60;;;;;;5081302;28;20233;-47
2023/02/23 01:29:39;;;;;;;10.60;8.53;;;17.00;69.60;;;;;;5070620;28;20255;-47
2023/02/23 01:32:07;;;;;;;10.50;8.73;;;17.00;69.60;;;;;;5050628;28;20590;-46
2023/02/23 01:34:38;;;;;;;10.80;8.50;;;17.00;69.70;;;;;;5070433;28;20730;-46
2023/02/23 01:37:08;;;;;;;9.50;8.50;;;17.00;69.60;;;;;;5059913;28;20207;-47
2023/02/23 01:39:40;;;;;;;10.50;8.53;;;17.00;69.70;;;;;;5065375;28;20196;-47
2023/02/23 01:42:15;;;;;;;9.00;7.87;;;17.00;69.70;;;;;;5060758;28;20205;-47
2023/02/23 01:44:47;;;;;;;12.83;8.83;;;17.00;69.80;;;;;;5060503;28;20214;-47
2023/02/23 01:47:16;;;;;;;9.30;8.00;;;17.00;69.70;;;;;;5041611;28;20209;-47
2023/02/23 01:49:49;;;;;;;9.20;8.20;;;17.00;69.70;;;;;;5056223;28;20299;-46
2023/02/23 01:52:21;;;;;;;9.53;8.53;;;17.00;69.70;;;;;;5071837;28;20597;-47
2023/02/23 01:54:54;;;;;;;10.30;8.20;;;17.00;69.80;;;;;;5058258;28;20214;-47
2023/02/23 01:57:25;;;;;;;10.77;8.10;;;17.00;69.70;;;;;;5050298;28;20196;-47
2023/02/23 01:59:56;;;;;;;10.27;8.17;;;17.00;69.70;;;;;;5051218;28;20194;-47
2023/02/23 02:02:32;;;;;;;14.20;8.80;;;17.00;69.70;;;;;;5071701;28;20194;-46
2023/02/23 02:05:12;;;;;;;10.40;7.70;;;16.90;69.70;;;;;;5054264;28;20204;-47
2023/02/23 02:07:49;;;;;;;11.00;8.63;;;16.90;69.70;;;;;;5070509;28;20660;-47
2023/02/23 02:10:38;;;;;;;9.70;7.90;;;16.90;69.70;;;;;;5051936;28;20302;-47
2023/02/23 02:13:13;;;;;;;8.67;7.77;;;16.90;69.80;;;;;;5058409;28;20237;-47
2023/02/23 02:16:13;;;;;;;9.13;7.83;;;16.90;69.80;;;;;;5046243;28;20522;-47
2023/02/23 02:19:19;;;;;;;8.60;7.70;;;16.90;69.90;;;;;;5070306;28;20206;-47
2023/02/23 02:22:15;;;;;;;10.00;8.43;;;16.90;69.80;;;;;;5057533;28;20297;-47
2023/02/23 02:25:14;;;;;;;9.07;7.83;;;16.90;69.90;;;;;;5065561;28;21584;-47
2023/02/23 02:28:07;;;;;;;9.77;7.47;;;16.90;69.90;;;;;;5071524;28;20221;-47
2023/02/23 02:31:37;;;;;;;12.73;8.53;;;16.80;69.80;;;;;;5078133;28;20663;-47
2023/02/23 02:34:44;;;;;;;10.03;7.70;;;16.80;69.90;;;;;;5081156;28;20508;-46
2023/02/23 02:37:46;;;;;;;9.37;8.37;;;16.90;70.00;;;;;;5082289;28;20274;-47
2023/02/23 02:40:53;;;;;;;9.07;7.53;;;16.90;70.00;;;;;;5065232;28;20199;-47
2023/02/23 02:43:32;;;;;;;9.00;7.23;;;16.80;70.00;;;;;;5082204;28;20215;-47
2023/02/23 02:46:14;;;;;;;12.27;8.40;;;16.80;70.00;;;;;;5053289;28;20185;-47
2023/02/23 02:48:58;;;;;;;9.63;8.27;;;16.80;69.90;;;;;;5081599;28;20546;-47
2023/02/23 02:51:50;;;;;;;9.40;7.40;;;16.80;70.00;;;;;;5075409;28;20193;-47
2023/02/23 02:54:36;;;;;;;12.07;8.23;;;16.80;70.00;;;;;;5080542;28;20201;-47
2023/02/23 02:57:09;;;;;;;10.10;8.10;;;16.80;70.00;;;;;;5080605;28;20196;-47
2023/02/23 04:19:19;;;;;;;14.23;8.73;;;16.70;70.10;;;;;;5077714;28;20198;-47
2023/02/23 04:21:49;;;;;;;12.43;9.60;;;16.70;70.10;;;;;;5085218;28;20197;-47
2023/02/23 04:24:18;;;;;;;10.63;8.80;;;16.70;70.10;;;;;;5072418;28;20233;-47
2023/02/23 04:26:48;;;;;;;13.33;9.33;;;16.70;70.20;;;;;;5055949;28;20242;-47
2023/02/23 04:29:25;;;;;;;12.07;9.70;;;16.70;70.00;;;;;;5067907;28;20593;-47
2023/02/23 04:31:53;;;;;;;11.60;9.13;;;16.70;70.10;;;;;;5054870;28;20224;-47
2023/02/23 04:34:22;;;;;;;11.23;9.70;;;16.70;70.00;;;;;;5065108;28;20206;-47
2023/02/23 04:36:52;;;;;;;12.13;9.80;;;16.70;69.90;;;;;;5059800;28;20214;-47
2023/02/23 04:39:20;;;;;;;12.07;9.27;;;16.70;70.10;;;;;;5066411;28;20201;-47
2023/02/23 04:41:54;;;;;;;12.80;9.47;;;16.70;70.10;;;;;;5063564;28;20267;-48
2023/02/23 04:44:24;;;;;;;11.57;8.97;;;16.70;70.00;;;;;;5067016;28;20209;-47
2023/02/23 04:46:55;;;;;;;11.23;8.63;;;16.70;70.00;;;;;;5067541;28;20576;-46
2023/02/23 04:49:26;;;;;;;10.67;8.67;;;16.70;70.00;;;;;;5065054;28;20285;-47
2023/02/23 04:51:59;;;;;;;11.33;8.50;;;16.70;70.00;;;;;;5064098;28;20623;-46
2023/02/23 04:54:28;;;;;;;12.50;9.93;;;16.60;69.90;;;;;;5065155;28;20669;-47
2023/02/23 04:57:02;;;;;;;12.27;9.77;;;16.60;69.90;;;;;;5067513;28;20216;-47
2023/02/23 04:59:32;;;;;;;10.50;8.30;;;16.60;70.00;;;;;;5067789;28;20206;-47
2023/02/23 05:02:01;;;;;;;10.50;8.63;;;16.70;70.10;;;;;;5044892;28;20259;-47
2023/02/23 05:04:33;;;;;;;10.90;9.30;;;16.60;70.00;;;;;;5053067;28;20218;-47
2023/02/23 05:07:08;;;;;;;11.73;9.23;;;16.60;70.00;;;;;;5068644;28;20654;-47
2023/02/23 05:09:37;;;;;;;12.00;9.17;;;16.70;70.00;;;;;;5069765;28;20205;-47
2023/02/23 05:12:10;;;;;;;11.80;8.40;;;16.60;70.00;;;;;;5046281;28;20234;-47
2023/02/23 05:14:41;;;;;;;11.73;9.20;;;16.60;69.90;;;;;;5056799;28;20659;-47
2023/02/23 05:17:13;;;;;;;11.57;8.67;;;16.70;70.00;;;;;;5048578;28;20544;-47
2023/02/23 05:19:43;;;;;;;12.53;8.93;;;16.60;70.00;;;;;;5061335;28;20193;-46
2023/02/23 05:22:14;;;;;;;12.90;10.17;;;16.60;69.80;;;;;;5065045;28;20683;-47
2023/02/23 05:25:00;;;;;;;11.70;9.37;;;16.70;69.90;;;;;;5051668;28;21031;-47
2023/02/23 05:27:28;;;;;;;10.23;8.03;;;16.60;69.90;;;;;;5072049;28;20294;-47
2023/02/23 05:30:00;;;;;;;12.97;9.10;;;16.60;70.00;;;;;;5075210;28;20198;-47
2023/02/23 05:32:44;;;;;;;11.73;9.40;;;16.60;69.80;;;;;;5077993;28;20286;-47
2023/02/23 05:35:15;;;;;;;10.30;8.67;;;16.60;69.90;;;;;;5086068;28;20209;-47
2023/02/23 05:37:47;;;;;;;11.77;9.50;;;16.60;69.90;;;;;;5078209;28;20213;-47
2023/02/23 05:40:16;;;;;;;11.60;8.77;;;16.60;69.80;;;;;;5073349;28;20217;-49
2023/02/23 05:42:48;;;;;;;11.00;8.80;;;16.60;69.90;;;;;;5068131;28;20188;-47
2023/02/23 05:45:19;;;;;;;12.23;9.37;;;16.60;69.90;;;;;;5086047;28;20251;-47
2023/02/23 05:47:50;;;;;;;11.53;9.37;;;16.60;69.80;;;;;;5080951;28;20202;-47
2023/02/23 05:50:20;;;;;;;10.20;8.47;;;16.60;69.90;;;;;;5085179;28;20213;-47
2023/02/23 05:52:52;;;;;;;11.20;9.17;;;16.60;69.60;;;;;;5065017;28;20239;-47
2023/02/23 05:55:27;;;;;;;11.23;9.07;;;16.60;69.60;;;;;;5087609;28;20216;-47
2023/02/23 05:57:58;;;;;;;11.63;8.67;;;16.60;69.50;;;;;;5087306;28;20195;-47
2023/02/23 06:00:28;;;;;;;10.03;8.37;;;16.60;69.40;;;;;;5083245;28;20279;-47
2023/02/23 06:02:59;;;;;;;10.93;8.23;;;16.60;69.40;;;;;;5083934;28;20646;-47
2023/02/23 06:05:33;;;;;;;11.50;9.20;;;16.60;69.30;;;;;;5083378;28;20295;-47
2023/02/23 06:08:02;;;;;;;11.53;8.87;;;16.60;69.20;;;;;;5087152;28;20776;-47
2023/02/23 06:10:32;;;;;;;9.87;8.13;;;16.60;69.20;;;;;;5072812;28;20193;-47
2023/02/23 06:13:03;;;;;;;11.23;9.17;;;16.60;69.10;;;;;;5074552;28;20205;-47
2023/02/23 06:15:36;;;;;;;10.80;8.50;;;16.60;69.10;;;;;;5084604;28;20225;-47
2023/02/23 06:18:07;;;;;;;11.90;8.83;;;16.60;69.00;;;;;;5077040;28;20197;-47
2023/02/23 06:20:39;;;;;;;11.63;9.10;;;16.60;69.10;;;;;;5089944;28;20213;-47
2023/02/23 06:23:11;;;;;;;10.67;8.70;;;16.60;69.10;;;;;;5071306;28;20532;-47
2023/02/23 06:26:07;;;;;;;10.20;8.33;;;16.60;69.00;;;;;;5070298;28;20312;-46
2023/02/23 06:28:43;;;;;;;10.70;9.10;;;16.50;68.90;;;;;;5067093;28;20232;-45
2023/02/23 06:31:15;;;;;;;12.87;9.70;;;16.60;69.10;;;;;;5070455;28;20520;-47
2023/02/23 06:33:47;;;;;;;12.93;9.80;;;16.50;69.00;;;;;;5068513;28;20392;-47
2023/02/23 06:36:30;;;;;;;10.27;9.00;;;16.50;68.90;;;;;;5066282;28;20214;-45
2023/02/23 06:39:06;;;;;;;11.03;9.00;;;16.50;68.90;;;;;;5069126;28;20634;-45
2023/02/23 06:41:36;;;;;;;11.03;9.33;;;16.50;69.50;;;;;;5077419;28;20277;-45
2023/02/23 06:44:08;;;;;;;13.60;10.20;;;16.50;68.80;;;;;;5065426;28;20261;-45
2023/02/23 06:46:38;;;;;;;13.87;10.87;;;16.60;68.80;;;;;;5070471;28;20194;-47
2023/02/23 06:49:10;;;;;;;11.53;8.87;;;16.60;68.90;;;;;;5062698;28;20241;-47
2023/02/23 06:51:44;;;;;;;12.33;10.07;;;16.60;68.80;;;;;;5060212;28;20201;-47
2023/02/23 06:54:16;;;;;;;11.97;9.97;;;16.50;68.80;;;;;;5065401;28;20202;-47
2023/02/23 06:56:47;;;;;;;12.20;9.73;;;16.50;68.80;;;;;;5063952;28;20229;-47
2023/02/23 06:59:16;;;;;;;12.73;10.13;;;16.50;68.70;;;;;;5064202;28;20193;-47
2023/02/23 07:01:49;;;;;;;12.40;10.30;;;16.60;68.80;;;;;;5064749;28;20202;-46
2023/02/23 07:04:18;;;;;;;12.57;9.37;;;16.50;68.80;;;;;;5067026;28;20220;-46
2023/02/23 07:06:53;;;;;;;14.83;10.50;;;16.50;68.70;;;;;;5066835;28;20206;-47
2023/02/23 07:09:23;;;;;;;12.73;10.33;;;16.50;68.70;;;;;;5068368;28;20181;-47
2023/02/23 07:11:56;;;;;;;13.43;9.57;;;16.50;68.60;;;;;;5065788;28;20209;-47
2023/02/23 07:14:26;;;;;;;12.07;9.60;;;16.50;68.70;;;;;;5067954;28;20631;-47
2023/02/23 07:16:54;;;;;;;11.73;9.50;;;16.50;68.70;;;;;;5050310;28;20198;-47
2023/02/23 07:19:24;;;;;;;13.67;10.90;;;16.50;68.60;;;;;;5068507;28;20202;-46
2023/02/23 07:21:54;;;;;;;12.53;10.17;;;16.50;68.60;;;;;;5058046;28;20718;-47
2023/02/23 07:24:22;;;;;;;13.07;10.60;;;16.50;68.60;;;;;;5059949;28;20242;-47
2023/02/23 07:26:52;;;;;;;12.27;9.63;;;16.50;68.60;;;;;;5067456;28;20241;-47
2023/02/23 07:29:23;;;;;;;13.47;10.00;;;16.50;68.50;;;;;;5051177;28;20677;-47
2023/02/23 07:31:52;;;;;;;17.37;10.20;;;16.50;68.50;;;;;;5067780;28;20224;-45
2023/02/23 07:34:22;;;;;;;13.83;9.93;;;16.50;68.50;;;;;;5064938;28;20247;-46
2023/02/23 07:36:54;;;;;;;14.73;10.40;;;16.50;68.50;;;;;;5064120;28;20831;-47
2023/02/23 07:39:24;;;;;;;14.70;10.63;;;16.50;68.60;;;;;;5060853;28;20234;-47
2023/02/23 07:42:01;;;;;;;12.50;9.77;;;16.50;68.80;;;;;;5065400;28;20622;-46
2023/02/23 07:44:29;;;;;;;12.47;9.97;;;16.60;68.90;;;;;;5067632;28;20206;-46
2023/02/23 07:47:00;;;;;;;13.43;10.33;;;16.60;68.90;;;;;;5062879;28;20190;-46
2023/02/23 07:49:31;;;;;;;13.70;10.70;;;16.50;68.90;;;;;;5061186;28;20237;-46
2023/02/23 07:52:02;;;;;;;12.63;10.47;;;16.60;69.00;;;;;;5064642;28;20208;-47
2023/02/23 07:54:33;;;;;;;12.60;9.70;;;16.60;69.00;;;;;;5048469;28;20228;-48
2023/02/23 07:57:02;;;;;;;12.13;9.43;;;16.50;68.90;;;;;;5065734;28;20197;-45
2023/02/23 07:59:32;;;;;;;13.90;10.87;;;16.50;68.80;;;;;;5071797;28;20232;-45
2023/02/23 08:02:03;;;;;;;13.17;10.33;;;16.60;68.90;;;;;;5060650;28;20201;-45
2023/02/23 08:04:34;;;;;;;13.37;10.13;;;16.50;68.80;;;;;;5068699;28;20217;-46
2023/02/23 08:07:07;;;;;;;14.63;10.23;;;16.50;68.80;;;;;;5049705;28;20200;-45
2023/02/23 08:09:39;;;;;;;13.43;10.23;;;16.50;68.70;;;;;;5064999;28;20208;-46
2023/02/23 08:12:10;;;;;;;13.07;10.27;;;16.50;68.70;;;;;;5061489;28;20273;-46
2023/02/23 08:14:38;;;;;;;13.63;10.47;;;16.50;68.70;;;;;;5048407;28;20263;-46
2023/02/23 08:17:13;;;;;;;13.83;10.10;;;16.50;68.70;;;;;;5066914;28;20225;-45
2023/02/23 08:19:45;;;;;;;14.43;10.43;;;16.50;68.60;;;;;;5049321;28;20186;-46
2023/02/23 08:22:18;;;;;;;12.57;10.00;;;16.50;68.60;;;;;;5067016;28;20754;-47
2023/02/23 08:24:48;;;;;;;12.57;10.57;;;16.50;68.60;;;;;;5057640;28;20265;-47
2023/02/23 08:27:19;;;;;;;13.20;9.80;;;16.50;68.50;;;;;;5066915;28;20236;-45
2023/02/23 08:29:59;;;;;;;12.93;9.67;;;16.50;68.50;;;;;;5045553;28;20806;-46
2023/02/23 08:32:52;;;;;;;12.43;9.93;;;16.50;68.50;;;;;;5051334;28;20271;-46
2023/02/23 08:35:24;;;;;;;13.57;9.97;;;16.50;68.50;;;;;;5038685;28;20197;-47
2023/02/23 08:37:55;;;;;;;13.30;10.60;;;16.60;68.50;;;;;;5046615;28;20697;-47
2023/02/23 08:40:33;;;;;;;15.77;11.10;;;16.50;68.40;;;;;;5067265;28;20611;-47
2023/02/23 08:43:05;;;;;;;15.93;10.47;;;16.50;68.40;;;;;;5065835;28;20197;-47
2023/02/23 08:45:36;;;;;;;16.50;11.00;;;16.60;68.50;;;;;;5067047;28;20206;-47
2023/02/23 08:48:07;;;;;;;12.03;10.23;;;16.50;68.40;;;;;;5058490;28;20803;-47
2023/02/23 08:50:42;;;;;;;15.57;10.47;;;16.50;68.40;;;;;;5048417;28;20197;-47
2023/02/23 08:53:11;;;;;;;13.50;10.80;;;16.60;68.40;;;;;;5063288;28;20193;-46
2023/02/23 08:55:45;;;;;;;14.40;10.40;;;16.60;68.40;;;;;;5065466;28;20204;-47
2023/02/23 08:58:15;;;;;;;12.83;9.90;;;16.50;68.30;;;;;;5062491;28;20205;-45
2023/02/23 09:00:44;;;;;;;13.37;10.83;;;16.60;68.30;;;;;;5058962;28;20263;-46
2023/02/23 09:03:22;;;;;;;12.77;10.27;;;16.60;68.40;;;;;;5064952;28;20209;-45
2023/02/23 09:05:54;;;;;;;12.90;9.87;;;16.50;68.30;;;;;;5043595;28;20618;-45
2023/02/23 09:08:25;;;;;;;13.87;10.13;;;16.50;68.20;;;;;;5053776;28;20194;-45
2023/02/23 09:10:56;;;;;;;12.57;9.70;;;16.60;68.20;;;;;;5064775;28;20197;-45
2023/02/23 09:13:27;;;;;;;12.47;10.50;;;16.60;68.10;;;;;;5061823;28;20272;-46
2023/02/23 09:16:08;;;;;;;11.47;9.77;;;16.50;68.00;;;;;;5063036;28;20202;-47
2023/02/23 09:18:40;;;;;;;12.47;9.57;;;16.50;68.10;;;;;;5065561;28;20202;-47
2023/02/23 09:21:24;;;;;;;11.43;9.57;;;16.50;68.10;;;;;;5064519;28;20216;-47
2023/02/23 09:23:54;;;;;;;10.80;9.43;;;16.60;68.20;;;;;;5050765;28;20200;-47
2023/02/23 09:26:28;;;;;;;14.60;10.03;;;16.50;68.00;;;;;;5064463;28;20235;-46
2023/02/23 09:29:00;;;;;;;11.10;8.83;;;16.50;68.00;;;;;;5080584;28;20228;-46
2023/02/23 09:31:28;;;;;;;11.67;9.53;;;16.60;68.10;;;;;;5073158;28;20189;-46
2023/02/23 09:34:00;;;;;;;11.83;9.70;;;16.60;68.00;;;;;;5070940;28;20193;-48
2023/02/23 09:36:30;;;;;;;12.40;9.43;;;16.50;68.00;;;;;;5061770;28;20216;-45
2023/02/23 09:39:03;;;;;;;11.93;9.80;;;16.50;67.90;;;;;;5057761;28;20649;-46
2023/02/23 09:41:54;;;;;;;12.00;9.23;;;16.60;68.00;;;;;;5069951;28;20197;-45
2023/02/23 09:44:34;;;;;;;11.93;9.10;;;16.60;68.60;;;;;;5088078;28;20573;-46
2023/02/23 09:47:22;;;;;;;11.27;8.90;;;16.60;67.90;;;;;;5080037;28;20193;-47
2023/02/23 09:49:56;;;;;;;10.53;8.73;;;16.60;67.90;;;;;;5062218;28;20517;-47
2023/02/23 09:52:43;;;;;;;10.40;8.77;;;16.60;67.90;;;;;;5059376;28;20224;-47
2023/02/23 09:55:26;;;;;;;11.03;9.23;;;16.60;67.80;;;;;;5077771;28;20220;-47
2023/02/23 09:58:05;;;;;;;10.60;9.07;;;16.60;67.80;;;;;;5087389;28;20204;-47
2023/02/23 10:00:53;;;;;;;10.90;8.60;;;16.60;67.70;;;;;;5069053;28;20213;-46
2023/02/23 10:03:39;;;;;;;12.37;9.43;;;16.60;67.80;;;;;;5078489;28;20198;-46
2023/02/23 10:06:33;;;;;;;10.27;8.73;;;16.60;67.90;;;;;;5078093;28;20209;-46
2023/02/23 10:09:33;;;;;;;10.47;8.77;;;16.60;67.80;;;;;;5055558;28;20201;-45
2023/02/23 10:12:21;;;;;;;11.57;9.10;;;16.60;67.90;;;;;;5082137;28;20181;-47
2023/02/23 10:15:27;;;;;;;11.77;8.80;;;16.60;67.80;;;;;;5084936;28;20197;-47
2023/02/23 10:18:21;;;;;;;11.47;9.20;;;16.60;67.60;;;;;;5074906;28;20219;-47
2023/02/23 10:21:42;;;;;;;11.03;9.03;;;16.60;67.60;;;;;;5059197;28;20197;-47
2023/02/23 10:24:34;;;;;;;11.13;9.27;;;16.60;67.50;;;;;;5064652;28;20564;-47
2023/02/23 10:27:17;;;;;;;11.40;9.93;;;16.60;67.40;;;;;;5066490;28;20607;-47
2023/02/23 10:30:01;;;;;;;11.83;9.60;;;16.60;67.50;;;;;;5065050;28;20186;-47
2023/02/23 10:32:48;;;;;;;11.03;9.27;;;16.50;67.30;;;;;;5084923;28;20200;-47
2023/02/23 10:35:24;;;;;;;11.37;8.20;;;16.60;67.40;;;;;;5069631;28;20251;-47
2023/02/23 10:38:00;;;;;;;12.37;8.97;;;16.60;67.30;;;;;;5081439;28;20208;-47
2023/02/23 10:40:32;;;;;;;11.10;8.53;;;16.50;67.30;;;;;;5067780;28;20636;-47
2023/02/23 10:43:02;;;;;;;11.43;9.13;;;16.60;67.30;;;;;;5060123;28;20213;-47
2023/02/23 10:45:37;;;;;;;9.63;8.30;;;16.60;67.30;;;;;;5065763;28;20278;-47
2023/02/23 10:48:15;;;;;;;9.43;8.20;;;16.60;67.30;;;;;;5054808;28;20216;-47
2023/02/23 10:50:48;;;;;;;12.80;9.63;;;16.50;67.30;;;;;;5074739;28;20194;-47
2023/02/23 10:53:27;;;;;;;10.63;8.93;;;16.60;67.40;;;;;;5062280;28;20193;-47
2023/02/23 10:56:19;;;;;;;9.30;8.20;;;16.50;67.30;;;;;;5058624;28;20201;-47
2023/02/23 10:58:56;;;;;;;9.00;7.83;;;16.60;67.50;;;;;;5050078;28;20623;-47
2023/02/23 11:01:43;;;;;;;10.57;8.37;;;16.60;67.40;;;;;;5075143;28;20380;-47
2023/02/23 11:04:33;;;;;;;10.83;8.77;;;16.60;67.40;;;;;;5062398;28;20206;-47
2023/02/23 11:07:39;;;;;;;8.37;7.47;;;16.50;67.40;;;;;;5064690;28;20212;-47
2023/02/23 11:10:26;;;;;;;10.67;8.17;;;16.60;67.50;;;;;;5067339;28;20815;-47
2023/02/23 11:12:55;;;;;;;10.03;7.47;;;16.60;67.50;;;;;;5052761;28;20213;-47
2023/02/23 11:15:31;;;;;;;9.37;7.43;;;16.60;67.60;;;;;;5082473;28;20193;-47
2023/02/23 11:18:27;;;;;;;19.70;9.97;;;16.60;67.60;;;;;;5051291;28;20205;-47
2023/02/23 11:20:58;;;;;;;53.80;16.87;;;16.60;67.70;;;;;;5079666;28;20205;-48
2023/02/23 11:23:53;;;;;;;61.87;20.10;;;16.60;67.80;;;;;;5071539;28;20204;-47
2023/02/23 11:26:39;;;;;;;74.03;22.37;;;16.60;67.80;;;;;;5075994;28;20214;-47
2023/02/23 11:29:21;;;;;;;73.27;22.17;;;16.60;67.90;;;;;;5070216;28;20236;-48
2023/02/23 11:31:58;;;;;;;88.17;24.03;;;16.60;67.80;;;;;;5077379;28;20546;-47
2023/02/23 11:34:42;;;;;;;82.53;23.90;;;16.60;67.80;;;;;;5076648;28;20296;-47
2023/02/23 11:37:13;;;;;;;76.20;24.97;;;16.60;68.50;;;;;;5065558;28;20214;-49
2023/02/23 11:40:00;;;;;;;75.43;23.17;;;16.60;67.80;;;;;;5069114;28;20619;-47
2023/02/23 11:42:32;;;;;;;74.00;24.07;;;16.60;67.80;;;;;;5070934;28;20283;-47
2023/02/23 11:45:18;;;;;;;70.07;24.03;;;16.60;67.70;;;;;;5066100;28;20194;-47
2023/02/23 11:47:51;;;;;;;78.47;25.13;;;16.60;67.70;;;;;;5050229;28;20197;-47
2023/02/23 11:50:34;;;;;;;71.93;22.83;;;16.60;67.70;;;;;;5052846;28;20201;-47
2023/02/23 11:53:18;;;;;;;60.67;21.67;;;16.60;67.70;;;;;;5068228;28;20212;-47
2023/02/23 11:56:01;;;;;;;65.60;21.67;;;16.60;67.60;;;;;;5068226;28;20186;-47
2023/02/23 11:58:44;;;;;;;57.97;20.80;;;16.60;67.50;;;;;;5046520;28;20592;-48
2023/02/23 12:01:50;;;;;;;53.63;20.17;;;16.60;67.60;;;;;;5062946;28;20237;-47
2023/02/23 12:04:35;;;;;;;52.97;21.00;;;16.60;67.60;;;;;;5047741;28;20202;-47
2023/02/23 12:07:33;;;;;;;43.10;18.50;;;16.60;67.60;;;;;;5059057;28;20210;-47
2023/02/23 12:10:18;;;;;;;52.23;19.13;;;16.70;67.60;;;;;;5067435;28;20197;-47
2023/02/23 12:13:03;;;;;;;45.87;18.90;;;16.70;67.60;;;;;;5048482;28;20202;-48
2023/02/23 12:15:50;;;;;;;40.70;17.33;;;16.60;67.50;;;;;;5072119;28;20784;-47
2023/02/23 12:19:11;;;;;;;48.50;19.00;;;16.60;67.50;;;;;;5067068;28;20202;-47
2023/02/23 12:21:53;;;;;;;43.63;17.17;;;16.60;67.40;;;;;;5013822;28;20224;-47
2023/02/23 12:24:44;;;;;;;37.63;16.77;;;16.60;67.50;;;;;;5061609;28;20717;-48
2023/02/23 12:27:25;;;;;;;41.87;16.90;;;16.70;67.50;;;;;;5066405;28;20209;-47
2023/02/23 12:30:20;;;;;;;44.50;16.30;;;16.60;68.10;;;;;;5048491;28;20185;-47
2023/02/23 12:33:35;;;;;;;36.87;15.93;;;16.60;67.50;;;;;;5066605;28;20212;-47
2023/02/23 12:36:38;;;;;;;38.43;16.13;;;16.70;67.40;;;;;;5044458;28;20524;-48
2023/02/23 12:39:35;;;;;;;38.40;16.10;;;16.70;67.40;;;;;;5051804;28;20248;-48
2023/02/23 12:42:41;;;;;;;27.53;14.43;;;16.70;67.60;;;;;;5064327;28;20197;-48
2023/02/23 12:45:58;;;;;;;33.27;15.47;;;16.80;67.80;;;;;;5059351;28;20238;-47
2023/02/23 12:49:07;;;;;;;30.93;14.00;;;16.80;67.90;;;;;;5037384;28;20205;-48
2023/02/23 12:51:44;;;;;;;31.50;15.13;;;16.90;67.70;;;;;;5045963;28;20241;-48
2023/02/23 12:54:18;;;;;;;24.63;13.73;;;17.00;68.20;;;;;;5063189;28;20200;-48
2023/02/23 12:57:12;;;;;;;28.87;14.27;;;17.10;67.60;;;;;;5049768;28;20550;-47
2023/02/23 13:00:29;;;;;;;27.57;13.97;;;17.20;67.50;;;;;;5069562;28;20197;-48
2023/02/23 13:03:45;;;;;;;26.57;14.50;;;17.30;67.30;;;;;;5068624;28;20209;-48
2023/02/23 13:06:53;;;;;;;25.73;12.93;;;17.40;67.10;;;;;;5066299;28;20241;-47
2023/02/23 13:09:34;;;;;;;18.77;11.80;;;17.50;66.80;;;;;;5069383;28;20189;-47
2023/02/23 13:12:27;;;;;;;25.07;12.47;;;17.60;66.60;;;;;;5063985;28;20244;-48
2023/02/23 13:15:30;;;;;;;23.80;12.67;;;17.60;66.40;;;;;;5071085;28;20200;-48
2023/02/23 13:18:27;;;;;;;19.33;12.30;;;17.80;66.20;;;;;;5067743;28;20193;-48
2023/02/23 13:21:16;;;;;;;22.57;11.47;;;17.90;66.10;;;;;;5069655;28;20190;-47
2023/02/23 13:24:09;;;;;;;20.33;11.37;;;17.90;66.50;;;;;;5069152;28;20302;-48
2023/02/23 13:26:52;;;;;;;19.47;11.93;;;17.90;66.00;;;;;;5069849;28;20267;-46
2023/02/23 13:29:40;;;;;;;19.60;11.33;;;18.00;66.10;;;;;;5082746;28;20229;-47
2023/02/23 13:32:19;;;;;;;18.57;11.13;;;18.00;65.60;;;;;;5067497;28;20182;-49
2023/02/23 13:35:06;;;;;;;20.57;11.03;;;18.10;65.50;;;;;;5052732;28;20209;-47
2023/02/23 13:37:59;;;;;;;18.77;11.20;;;18.10;66.10;;;;;;5050858;28;20214;-48
2023/02/23 13:40:53;;;;;;;16.53;9.70;;;18.20;65.90;;;;;;5067847;28;20186;-48
2023/02/23 13:43:31;;;;;;;20.13;12.00;;;18.20;65.90;;;;;;5081297;28;20205;-48
2023/02/23 13:46:30;;;;;;;16.47;11.10;;;18.20;64.80;;;;;;5077715;28;20220;-48
2023/02/23 13:49:16;;;;;;;16.53;11.87;;;18.20;64.70;;;;;;5083353;28;20213;-48
2023/02/23 13:52:16;;;;;;;16.80;11.10;;;18.20;64.70;;;;;;5084162;28;20224;-46
2023/02/23 13:55:02;;;;;;;16.37;11.67;;;18.20;64.70;;;;;;5075909;28;20193;-46
2023/02/23 13:57:36;;;;;;;14.90;10.97;;;18.20;64.40;;;;;;5057336;28;20647;-47
2023/02/23 14:00:03;;;;;;;16.13;10.80;;;18.20;64.50;;;;;;5055447;28;20225;-46
2023/02/23 14:02:48;;;;;;;13.50;10.30;;;18.20;64.50;;;;;;5084452;28;20220;-47
2023/02/23 14:05:23;;;;;;;14.80;10.23;;;18.30;64.60;;;;;;5073457;28;20197;-47
2023/02/23 14:08:01;;;;;;;16.17;10.60;;;18.30;64.50;;;;;;5090854;28;20259;-47
2023/02/23 14:10:45;;;;;;;14.53;10.57;;;18.30;64.50;;;;;;5068219;28;20197;-47
2023/02/23 14:13:17;;;;;;;13.40;9.10;;;18.40;64.30;;;;;;5066932;28;20228;-46
2023/02/23 14:16:15;;;;;;;13.03;9.57;;;18.40;64.20;;;;;;5060832;28;20684;-46
2023/02/23 14:18:59;;;;;;;12.37;9.47;;;18.50;64.10;;;;;;5077225;28;20197;-46
2023/02/23 14:21:51;;;;;;;12.07;9.57;;;18.50;64.20;;;;;;5073614;28;20201;-47
2023/02/23 14:24:28;;;;;;;11.47;8.80;;;18.50;64.10;;;;;;5085067;28;20221;-46
2023/02/23 14:27:09;;;;;;;12.23;9.23;;;18.60;64.10;;;;;;5089835;28;20873;-46
2023/02/23 14:30:20;;;;;;;11.00;8.97;;;18.60;64.00;;;;;;5066960;28;20235;-46
2023/02/23 14:32:49;;;;;;;11.33;8.57;;;18.60;64.00;;;;;;5048741;28;20224;-46
2023/02/23 14:35:41;;;;;;;9.63;8.53;;;18.60;63.50;;;;;;5051935;28;20201;-47
2023/02/23 14:38:25;;;;;;;10.00;8.73;;;18.60;63.50;;;;;;5031399;28;20601;-48
2023/02/23 14:41:01;;;;;;;9.87;7.73;;;18.70;63.50;;;;;;5053581;28;20591;-47
2023/02/23 14:43:41;;;;;;;11.67;8.10;;;18.70;63.90;;;;;;5068437;28;20251;-47
2023/02/23 14:46:27;;;;;;;9.73;8.20;;;18.70;63.30;;;;;;5065505;28;20301;-47
2023/02/23 14:49:14;;;;;;;10.97;7.43;;;18.70;63.10;;;;;;5049888;28;20217;-47
2023/02/23 14:52:08;;;;;;;9.83;8.20;;;18.70;63.20;;;;;;5070491;28;20235;-48
2023/02/23 14:54:49;;;;;;;8.43;7.53;;;18.80;63.00;;;;;;5049719;28;20241;-48